createdAt,value
2019-05-14T00:03:31.111Z,62.32
2019-05-14T00:06:02.223Z,62.17
2019-05-14T00:08:32.867Z,62.53
2019-05-14T00:11:02.273Z,62.21
2019-05-14T00:13:32.256Z,62.40
2019-05-14T00:18:46.420Z,62.49
2019-05-14T00:21:55.192Z,62.52
2019-05-14T00:25:05.084Z,62.46
2019-05-14T00:27:34.543Z,62.51
2019-05-14T00:33:01.256Z,62.58
2019-05-14T00:35:32.547Z,63.38
2019-05-14T00:38:13.628Z,62.77
2019-05-14T00:44:03.286Z,62.92
2019-05-14T00:46:33.325Z,63.21
2019-05-14T00:51:53.108Z,63.53
2019-05-14T00:57:12.602Z,63.79
2019-05-14T00:59:42.054Z,63.76
2019-05-14T01:02:51.829Z,64.05
2019-05-14T01:05:25.165Z,64.06
2019-05-14T01:07:54.869Z,64.08
2019-05-14T01:10:24.371Z,64.22
2019-05-14T01:15:51.915Z,64.53
2019-05-14T01:18:21.903Z,64.50
2019-05-14T01:20:52.922Z,64.58
2019-05-14T01:26:36.620Z,64.80
2019-05-14T01:29:45.319Z,64.77
2019-05-14T01:32:14.779Z,64.81
2019-05-14T01:38:02.430Z,65.16
2019-05-14T01:40:32.063Z,65.24
2019-05-14T01:43:02.646Z,65.16
2019-05-14T01:45:32.995Z,65.33
2019-05-14T01:48:02.566Z,65.53
2019-05-14T01:50:32.336Z,65.35
2019-05-14T01:53:03.163Z,65.41
2019-05-14T01:55:32.741Z,65.45
2019-05-14T01:58:02.553Z,65.68
2019-05-14T02:03:09.219Z,66.09
2019-05-14T02:11:34.632Z,66.32
2019-05-14T02:14:43.352Z,66.20
2019-05-14T02:19:51.467Z,66.71
2019-05-14T02:25:51.662Z,66.48
2019-05-14T02:28:22.127Z,66.80
2019-05-14T02:30:57.938Z,66.73
2019-05-14T02:33:23.667Z,66.61
2019-05-14T02:35:53.078Z,66.68
2019-05-14T02:41:19.660Z,66.62
2019-05-14T02:43:50.504Z,66.68
2019-05-14T02:46:59.703Z,67.07
2019-05-14T02:52:43.634Z,66.84
2019-05-14T02:55:13.078Z,66.70
2019-05-14T02:57:42.544Z,66.42
2019-05-14T03:00:51.540Z,66.71
2019-05-14T03:03:33.084Z,66.76
2019-05-14T03:06:02.894Z,66.42
2019-05-14T03:08:32.676Z,66.31
2019-05-14T03:11:41.607Z,66.37
2019-05-14T03:14:11.068Z,66.17
2019-05-14T03:16:40.863Z,66.21
2019-05-14T03:19:12.566Z,66.00
2019-05-14T03:21:42.090Z,65.90
2019-05-14T03:34:13.727Z,64.97
2019-05-14T03:36:42.988Z,64.82
2019-05-14T03:39:11.264Z,64.29
2019-05-14T03:44:39.784Z,64.27
2019-05-14T03:47:10.308Z,63.73
2019-05-14T03:49:40.363Z,63.88
2019-05-14T03:52:10.552Z,63.12
2019-05-14T03:55:20.340Z,62.92
2019-05-14T03:57:51.372Z,62.85
2019-05-14T04:01:01.020Z,62.46
2019-05-14T04:37:10.675Z,57.81
2019-05-14T04:39:40.087Z,57.70
2019-05-14T04:42:10.049Z,56.72
2019-05-14T04:44:42.926Z,54.79
2019-05-14T04:47:27.658Z,53.46
2019-05-14T04:49:43.954Z,48.14
2019-05-14T04:52:13.758Z,42.52
2019-05-14T04:57:34.264Z,36.02
2019-05-14T05:00:03.984Z,35.73
2019-05-14T05:02:33.401Z,34.41
2019-05-14T05:05:42.258Z,34.72
2019-05-14T05:11:22.391Z,41.24
2019-05-14T05:13:52.285Z,43.56
2019-05-14T05:16:22.101Z,44.09
2019-05-14T05:22:08.018Z,45.71
2019-05-14T05:24:38.315Z,46.23
2019-05-14T05:27:48.712Z,46.95
2019-05-14T05:33:33.480Z,46.71
2019-05-14T05:36:02.854Z,46.90
2019-05-14T05:38:32.664Z,46.64
2019-05-14T05:41:22.455Z,46.96
2019-05-14T05:43:52.247Z,46.35
2019-05-14T05:46:21.608Z,46.81
2019-05-14T05:48:51.278Z,46.72
2019-05-14T05:51:20.841Z,46.92
2019-05-14T05:54:09.674Z,46.76
2019-05-14T05:59:19.119Z,47.79
2019-05-14T06:07:53.889Z,45.99
2019-05-14T06:13:32.653Z,45.37
2019-05-14T06:16:02.098Z,45.12
2019-05-14T06:18:34.314Z,44.88
2019-05-14T06:21:03.287Z,45.63
2019-05-14T06:23:45.048Z,45.64
2019-05-14T06:26:53.933Z,45.68
2019-05-14T06:29:23.518Z,43.50
2019-05-14T06:31:52.901Z,43.38
2019-05-14T06:34:22.373Z,43.10
2019-05-14T06:40:01.169Z,44.23
2019-05-14T06:42:30.584Z,43.69
2019-05-14T06:45:00.082Z,42.28
2019-05-14T06:48:09.003Z,42.29
2019-05-14T06:53:53.767Z,39.38
2019-05-14T06:56:23.278Z,38.74
2019-05-14T06:58:52.786Z,38.99
2019-05-14T07:01:22.398Z,38.13
2019-05-14T07:03:51.934Z,37.95
2019-05-14T07:06:21.416Z,37.52
2019-05-14T07:09:30.974Z,37.55
2019-05-14T07:15:02.537Z,37.29
2019-05-14T07:17:32.003Z,35.93
2019-05-14T07:22:58.648Z,37.11
2019-05-14T07:25:28.833Z,39.12
2019-05-14T07:28:19.297Z,39.33
2019-05-14T07:33:51.474Z,39.04
2019-05-14T07:36:39.912Z,39.75
2019-05-14T07:39:09.659Z,38.96
2019-05-14T07:41:39.292Z,38.86
2019-05-14T07:44:09.366Z,38.85
2019-05-14T07:46:40.141Z,39.17
2019-05-14T07:49:11.895Z,37.50
2019-05-14T07:51:41.122Z,38.68
2019-05-14T07:54:11.464Z,38.61
2019-05-14T07:57:20.399Z,36.29
2019-05-14T07:59:50.791Z,36.48
2019-05-14T08:02:20.173Z,36.16
2019-05-14T08:04:49.574Z,36.70
2019-05-14T08:07:18.961Z,35.35
2019-05-14T08:09:48.418Z,37.40
2019-05-14T08:12:19.314Z,36.19
2019-05-14T08:15:09.543Z,36.61
2019-05-14T08:17:22.864Z,37.24
2019-05-14T08:19:52.307Z,37.20
2019-05-14T08:22:21.780Z,36.89
2019-05-14T08:25:02.405Z,36.10
2019-05-14T08:27:31.842Z,36.20
2019-05-14T08:30:01.271Z,37.43
2019-05-14T08:32:30.853Z,35.84
2019-05-14T08:35:00.447Z,36.09
2019-05-14T08:37:29.912Z,36.64
2019-05-14T08:39:59.582Z,36.35
2019-05-14T08:42:29.212Z,36.00
2019-05-14T08:53:45.175Z,36.69
2019-05-14T08:56:14.640Z,37.58
2019-05-14T08:58:43.986Z,39.16
2019-05-14T09:01:13.477Z,39.17
2019-05-14T09:03:43.405Z,38.97
2019-05-14T09:08:49.634Z,39.03
2019-05-14T09:17:22.194Z,37.01
2019-05-14T09:20:02.015Z,34.16
2019-05-14T09:28:28.471Z,37.72
2019-05-14T09:30:59.676Z,35.42
2019-05-14T09:33:29.905Z,34.82
2019-05-14T09:36:39.831Z,37.21
2019-05-14T09:39:12.253Z,38.54
2019-05-14T09:41:42.970Z,36.53
2019-05-14T09:44:51.759Z,36.75
2019-05-14T09:47:21.221Z,34.75
2019-05-14T09:52:59.540Z,34.00
2019-05-14T09:55:28.950Z,35.57
2019-05-14T09:57:58.733Z,34.42
2019-05-14T10:00:30.178Z,36.27
2019-05-14T10:03:39.368Z,36.11
2019-05-14T10:06:10.075Z,36.00
2019-05-14T10:08:39.524Z,36.27
2019-05-14T10:13:59.846Z,37.38
2019-05-14T10:16:30.000Z,37.12
2019-05-14T10:18:59.616Z,37.08
2019-05-14T10:21:29.456Z,37.50
2019-05-14T10:27:08.881Z,38.62
2019-05-14T10:29:39.639Z,39.07
2019-05-14T10:32:09.223Z,39.47
2019-05-14T10:34:38.745Z,40.28
2019-05-14T10:37:08.764Z,41.02
2019-05-14T10:39:39.626Z,40.99
2019-05-14T10:42:09.236Z,41.34
2019-05-14T10:44:40.248Z,41.08
2019-05-14T10:47:09.897Z,40.31
2019-05-14T10:49:39.280Z,40.94
2019-05-14T10:52:08.700Z,41.58
2019-05-14T10:54:38.918Z,41.54
2019-05-14T10:57:09.966Z,42.02
2019-05-14T10:59:39.685Z,42.57
2019-05-14T11:02:11.996Z,40.62
2019-05-14T11:04:40.960Z,39.48
2019-05-14T11:13:21.571Z,37.19
2019-05-14T11:15:51.082Z,37.90
2019-05-14T11:18:20.660Z,39.32
2019-05-14T11:23:45.673Z,41.93
2019-05-14T11:26:15.399Z,40.98
2019-05-14T11:28:44.898Z,41.29
2019-05-14T11:31:14.316Z,41.16
2019-05-14T11:33:44.318Z,41.56
2019-05-14T11:36:53.183Z,41.41
2019-05-14T11:42:38.856Z,42.48
2019-05-14T11:45:10.943Z,42.99
2019-05-14T11:47:41.542Z,42.32
2019-05-14T11:53:26.566Z,42.75
2019-05-14T11:55:55.919Z,41.82
2019-05-14T11:58:25.440Z,41.93
2019-05-14T12:00:54.873Z,41.48
2019-05-14T12:06:33.858Z,39.71
2019-05-14T12:09:04.406Z,38.14
2019-05-14T12:11:33.831Z,36.38
2019-05-14T12:14:03.335Z,37.41
2019-05-14T12:19:48.573Z,37.55
2019-05-14T12:22:19.273Z,37.84
2019-05-14T12:24:51.632Z,38.66
2019-05-14T12:27:21.039Z,38.76
2019-05-14T12:29:50.708Z,39.83
2019-05-14T12:35:19.662Z,40.05
2019-05-14T12:37:48.972Z,40.37
2019-05-14T12:40:19.354Z,40.32
2019-05-14T12:42:49.976Z,39.46
2019-05-14T12:48:30.647Z,39.47
2019-05-14T12:54:09.363Z,39.90
2019-05-14T12:56:40.112Z,39.73
2019-05-14T12:59:49.357Z,39.08
2019-05-14T13:02:19.611Z,39.96
2019-05-14T13:05:29.422Z,39.30
2019-05-14T13:11:01.130Z,41.19
2019-05-14T13:13:30.935Z,41.05
2019-05-14T13:16:00.434Z,41.46
2019-05-14T13:19:09.381Z,42.45
2019-05-14T13:22:08.657Z,46.82
2019-05-14T13:24:24.046Z,50.40
2019-05-14T13:26:53.422Z,49.86
2019-05-14T13:32:19.564Z,48.36
2019-05-14T13:34:52.176Z,47.89
2019-05-14T13:38:00.922Z,46.58
2019-05-14T13:43:31.724Z,48.19
2019-05-14T13:46:01.212Z,47.47
2019-05-14T13:49:10.175Z,47.18
2019-05-14T13:54:40.764Z,50.72
2019-05-14T13:57:12.184Z,52.04
2019-05-14T13:59:44.572Z,51.59
2019-05-14T14:02:52.899Z,52.01
2019-05-14T14:05:22.544Z,52.04
2019-05-14T14:11:12.669Z,53.32
2019-05-14T14:13:40.526Z,54.31
2019-05-14T14:16:49.323Z,52.28
2019-05-14T14:19:19.679Z,51.73
2019-05-14T14:21:49.629Z,52.60
2019-05-14T14:24:38.757Z,52.37
2019-05-14T14:27:09.552Z,51.90
2019-05-14T14:29:39.694Z,50.62
2019-05-14T14:32:13.584Z,50.65
2019-05-14T14:37:59.205Z,46.72
2019-05-14T14:40:30.143Z,46.66
2019-05-14T14:46:48.359Z,45.83
2019-05-14T14:52:19.880Z,47.29
2019-05-14T14:58:00.585Z,47.91
2019-05-14T15:01:09.419Z,48.50
2019-05-14T15:06:39.473Z,49.16
2019-05-14T15:12:10.205Z,50.20
2019-05-14T15:17:49.576Z,50.85
2019-05-14T15:20:19.680Z,50.73
2019-05-14T15:22:51.135Z,50.77
2019-05-14T15:28:18.875Z,50.57
2019-05-14T15:30:49.869Z,50.99
2019-05-14T15:33:19.949Z,51.56
2019-05-14T15:35:49.498Z,51.98
2019-05-14T15:38:59.086Z,52.21
2019-05-14T15:41:29.988Z,52.16
2019-05-14T15:44:48.660Z,52.74
2019-05-14T15:47:12.316Z,53.00
2019-05-14T15:49:41.930Z,53.21
2019-05-14T15:52:13.629Z,52.71
2019-05-14T15:54:47.133Z,53.44
2019-05-14T15:57:14.631Z,53.32
2019-05-14T15:59:44.160Z,53.48
2019-05-14T16:02:13.962Z,53.92
2019-05-14T16:05:04.491Z,54.36
2019-05-14T16:07:33.942Z,56.29
2019-05-14T16:10:04.802Z,58.04
2019-05-14T16:13:14.531Z,60.33
2019-05-14T16:18:24.262Z,63.49
2019-05-14T16:24:02.961Z,62.34
2019-05-14T16:29:47.239Z,64.96
2019-05-14T16:32:17.248Z,65.29
2019-05-14T16:38:14.629Z,64.57
2019-05-14T16:40:44.099Z,63.76
2019-05-14T16:49:11.995Z,62.45
2019-05-14T16:51:41.460Z,63.66
2019-05-14T16:54:12.372Z,64.04
2019-05-14T16:56:41.954Z,64.31
2019-05-14T16:59:50.827Z,64.06
2019-05-14T17:02:20.764Z,63.70
2019-05-14T17:04:50.193Z,62.53
2019-05-14T17:07:58.969Z,62.47
2019-05-14T17:10:48.269Z,62.93
2019-05-14T17:13:19.193Z,62.31
2019-05-14T17:19:02.688Z,62.83
2019-05-14T17:21:32.273Z,63.06
2019-05-14T17:24:01.876Z,63.10
2019-05-14T17:26:31.391Z,63.11
2019-05-14T17:29:20.154Z,63.93
2019-05-14T17:34:25.777Z,63.66
2019-05-14T17:36:55.457Z,63.29
2019-05-14T17:39:44.343Z,62.88
2019-05-14T17:42:14.453Z,63.50
2019-05-14T17:45:23.890Z,63.98
2019-05-14T17:47:58.326Z,63.00
2019-05-14T17:53:41.734Z,63.05
2019-05-14T17:56:50.709Z,63.30
2019-05-14T17:59:20.313Z,63.31
2019-05-14T18:01:49.682Z,63.27
2019-05-14T18:04:20.040Z,63.37
2019-05-14T18:06:49.587Z,63.78
2019-05-14T18:12:34.066Z,63.69
2019-05-14T18:18:33.348Z,64.60
2019-05-14T18:21:02.910Z,65.08
2019-05-14T18:24:11.670Z,65.10
2019-05-14T18:32:30.946Z,66.75
2019-05-14T18:35:20.270Z,66.39
2019-05-14T18:37:49.786Z,66.53
2019-05-14T18:40:19.818Z,67.17
2019-05-14T18:42:49.255Z,67.25
2019-05-14T18:45:19.362Z,67.66
2019-05-14T18:47:48.889Z,68.20
2019-05-14T18:50:19.582Z,68.51
2019-05-14T18:53:29.800Z,68.81
2019-05-14T18:59:00.718Z,69.29
2019-05-14T19:01:53.736Z,69.64
2019-05-14T19:04:22.179Z,69.81
2019-05-14T19:06:51.787Z,69.91
2019-05-14T19:18:20.154Z,70.67
2019-05-14T19:24:38.230Z,71.78
2019-05-14T19:30:25.377Z,72.54
2019-05-14T19:32:54.768Z,72.41
2019-05-14T19:35:43.600Z,71.74
2019-05-14T19:41:29.190Z,72.35
2019-05-14T19:44:40.377Z,72.57
2019-05-14T19:47:10.612Z,72.74
2019-05-14T19:49:59.184Z,72.84
2019-05-14T19:53:09.061Z,73.18
2019-05-14T20:02:06.282Z,74.26
2019-05-14T20:04:36.037Z,74.17
2019-05-14T20:10:01.457Z,74.43
2019-05-14T20:15:45.710Z,73.91
2019-05-14T20:18:54.640Z,73.74
2019-05-14T20:22:03.982Z,73.86
2019-05-14T20:30:50.491Z,73.01
2019-05-14T20:33:20.421Z,72.36
2019-05-14T20:35:50.621Z,71.93
2019-05-14T20:41:18.043Z,70.52
2019-05-14T20:43:48.116Z,70.13
2019-05-14T20:46:19.328Z,70.20
2019-05-14T20:49:28.421Z,70.48
2019-05-14T20:51:59.570Z,70.27
2019-05-14T20:54:30.903Z,69.45
2019-05-14T20:57:00.394Z,69.58
2019-05-14T20:59:29.936Z,69.70
2019-05-14T21:02:39.567Z,69.06
2019-05-14T21:08:13.611Z,69.23
2019-05-14T21:10:54.826Z,69.18
2019-05-14T21:16:18.527Z,68.97
2019-05-14T21:18:48.859Z,69.23
2019-05-14T21:24:29.604Z,68.83
2019-05-14T21:30:03.927Z,68.84
2019-05-14T21:33:13.049Z,69.09
2019-05-14T21:36:21.876Z,69.33
2019-05-14T21:38:51.797Z,69.16
2019-05-14T21:41:21.703Z,68.83
2019-05-14T21:44:30.507Z,68.68
2019-05-14T21:47:00.145Z,68.30
2019-05-14T21:49:30.005Z,68.07
2019-05-14T21:52:42.195Z,68.21
2019-05-14T21:58:25.158Z,67.98
2019-05-14T22:01:33.830Z,68.45
2019-05-14T22:04:03.359Z,68.27
2019-05-14T22:10:07.171Z,68.29
2019-05-14T22:12:39.269Z,68.17
2019-05-14T22:15:09.272Z,68.25
2019-05-14T22:17:39.591Z,68.09
2019-05-14T22:28:52.953Z,68.49
2019-05-14T22:35:31.647Z,68.70
2019-05-14T22:41:18.179Z,69.02
2019-05-14T22:43:51.093Z,69.16
2019-05-14T22:46:19.337Z,69.04
2019-05-14T22:48:51.488Z,69.13
2019-05-14T22:51:20.962Z,69.58
2019-05-14T22:54:30.712Z,69.75
2019-05-14T22:59:41.444Z,69.39
2019-05-14T23:02:11.539Z,69.27
2019-05-14T23:04:42.704Z,69.73
2019-05-14T23:07:12.282Z,69.78
2019-05-14T23:09:41.837Z,69.78
2019-05-14T23:12:12.280Z,69.36
2019-05-14T23:17:38.969Z,68.56
2019-05-14T23:20:09.373Z,69.00
2019-05-14T23:23:18.542Z,69.13
2019-05-14T23:25:49.836Z,68.96
2019-05-14T23:28:19.380Z,68.89
2019-05-14T23:31:30.811Z,68.62
2019-05-14T23:34:01.344Z,68.70
2019-05-14T23:45:40.517Z,68.95
2019-05-14T23:48:10.479Z,69.06
2019-05-14T23:50:39.861Z,69.29
2019-05-14T23:53:29.159Z,69.45
2019-05-14T23:56:19.383Z,69.62
2019-05-14T23:58:55.883Z,69.78
